Saturday, August 18, 2018, 3:18 AM EDT
Back to Local

KVSF, Hartness State Airport

Location: Perkinsville, VT, United States Lat: 43.35
Local Time: 3:18 AM EDT ( 7:18 GMT) Lon: -72.517
Time Zone: US/Eastern Elev: 577 ft

Show me the last for .
Show Decoded

2018-08-18 03:10 METAR KVSF 180710Z AUTO 23003KT 10SM FEW004 SCT022 BKN028 21/21 A2982 RMK AO2
                 T02110211 =
2018-08-18 02:54 METAR KVSF 180654Z AUTO 00000KT 10SM FEW022 BKN027 OVC100 22/22 A2983 RMK AO2
                 RAE25 SLP097 P0003 T02170217 =
2018-08-18 01:54 METAR KVSF 180554Z AUTO 15003KT 4SM RA BR BKN095 BKN120 22/22 A2984 RMK AO2 LTG
                 DSNT N SLP103 P0006 60026 T02170217 10233 20217 58016 =
2018-08-18 01:35 METAR KVSF 180535Z AUTO 00000KT 6SM -RA BR FEW012 BKN090 OVC110 22/22 A2985 RMK
                 AO2 P0003 T02220222 =
2018-08-18 00:54 METAR KVSF 180454Z AUTO 00000KT 10SM -RA FEW014 BKN029 OVC080 22/22 A2987 RMK
                 AO2 LTG DSNT NE AND W RAB31 SLP112 P0001 T02220222 402670161 =
2018-08-18 00:07 METAR KVSF 180407Z AUTO 00000KT 6SM BR FEW009 BKN060 OVC100 22/22 A2987 RMK AO2
                 T02220222 =
2018-08-17 23:54 METAR KVSF 180354Z AUTO 00000KT 9SM SCT028 BKN050 OVC100 22/22 A2988 RMK AO2
                 RAB20E35 SLP116 P0000 T02220222 =
2018-08-17 22:54 METAR KVSF 180254Z AUTO 14005KT 9SM BKN030 BKN044 OVC090 23/22 A2989 RMK AO2 LTG
                 DSNT SW RAE06 SLP119 P0000 60019 T02280222 58007 =
2018-08-17 22:33 METAR KVSF 180233Z AUTO 15003KT 7SM FEW009 BKN045 23/23 A2989 RMK AO2 RAE06
                 P0000 T02280228 =
2018-08-17 22:22 METAR KVSF 180222Z AUTO 14003KT 7SM BKN010 23/23 A2989 RMK AO2 RAE06 CIG 008V014
                 P0000 T02280228 =
2018-08-17 22:06 METAR KVSF 180206Z AUTO 16003KT 7SM BKN009 OVC014 23/23 A2989 RMK AO2 LTG DSNT E
                 RAE06 P0000 T02280228 =
2018-08-17 21:54 METAR KVSF 180154Z AUTO VRB03KT 6SM -RA BR SCT008 BKN013 OVC032 23/23 A2989 RMK
                 AO2 LTG DSNT E TSE01 SLP120 P0010 T02280228 =
2018-08-17 21:44 METAR KVSF 180144Z AUTO 00000KT 5SM -RA BR BKN007 BKN016 OVC090 23/23 A2989 RMK
                 AO2 LTG DSNT NE-S TSE01 P0010 T02280228 =
2018-08-17 21:32 METAR KVSF 180132Z AUTO 00000KT 5SM -RA BR SCT007 BKN016 OVC100 23/23 A2990 RMK
                 AO2 LTG DSNT E-SW TSE01 P0009 T02280228 =
2018-08-17 21:23 METAR KVSF 180123Z AUTO 15004KT 4SM RA BR SCT012 BKN080 OVC095 23/23 A2990 RMK
                 AO2 LTG DSNT E-SW TSE01 P0008 T02280228 =
2018-08-17 21:13 METAR KVSF 180113Z AUTO 15005KT 2SM RA BR SCT014 BKN042 OVC085 23/23 A2991 RMK
                 AO2 LTG DSNT E-SW TSE01 P0006 T02280228 =
2018-08-17 21:09 METAR KVSF 180109Z AUTO 15004KT 2SM VCTS RA BR BKN014 BKN080 OVC100 23/23 A2991
                 RMK AO2 LTG DSNT E-SW TSE01 P0005 T02280228 =
2018-08-17 21:01 METAR KVSF 180101Z AUTO 15004KT 1 3/4SM VCTS -RA BR BKN010 OVC020 23/23 A2991
                 RMK AO2 LTG DSNT ALQDS TSE01 P0002 T02280228 =
2018-08-17 20:54 METAR KVSF 180054Z AUTO 00000KT 1 1/4SM +TSRA BR FEW010 BKN019 OVC036 23/23
                 A2992 RMK AO2 LTG DSNT ALQDS TSB46 SLP129 P0009 T02280228 =
2018-08-17 20:46 METAR KVSF 180046Z AUTO 00000KT 2 1/2SM -TSRA BR FEW013 BKN019 OVC049 23/23
                 A2992 RMK AO2 LTG DSNT ALQDS TSB46 P0005 T02280228 =
2018-08-17 20:36 METAR KVSF 180036Z AUTO 00000KT 3SM VCTS -RA BR FEW002 BKN021 OVC055 23/23 A2992
                 RMK AO2 LTG DSNT ALQDS P0002 T02280228 =
2018-08-17 20:32 METAR KVSF 180032Z AUTO 00000KT 3SM -RA BR FEW002 BKN042 OVC055 23/23 A2992 RMK
                 AO2 LTG DSNT ALQDS P0002 T02280228 =
2018-08-17 20:19 METAR KVSF 180019Z AUTO 00000KT 4SM -RA BR SCT004 BKN023 OVC060 23/23 A2992 RMK
                 AO2 LTG DSNT ALQDS P0001 T02280228 =
2018-08-17 20:03 METAR KVSF 180003Z AUTO 00000KT 4SM -RA BR SCT021 BKN027 OVC032 23/23 A2991 RMK
                 AO2 LTG DSNT ALQDS P0000 T02280228 =
2018-08-17 19:54 METAR KVSF 172354Z AUTO 00000KT 4SM -RA BR FEW001 SCT025 BKN033 23/23 A2991 RMK
                 AO2 LTG DSNT ALQDS RAB2255E33B53 SLP127 P0001 60046 T02280228 10267 20222 58010
                 =
2018-08-17 19:48 METAR KVSF 172348Z AUTO 00000KT 3SM BR FEW001 BKN029 OVC060 22/22 A2991 RMK AO2
                 LTG DSNT ALQDS RAB2255E33 P0000 =
2018-08-17 19:37 METAR KVSF 172337Z AUTO 00000KT 2SM BR FEW001 BKN055 OVC100 22/22 A2991 RMK AO2
                 LTG DSNT ALQDS RAB2255E33 P0000 T02220222 =
2018-08-17 19:27 METAR KVSF 172327Z AUTO 00000KT 2SM -RA BR FEW029 BKN055 OVC070 23/23 A2991 RMK
                 AO2 LTG DSNT ALQDS RAB2255 P0000 T02280228 =
2018-08-17 18:54 METAR KVSF 172254Z AUTO 00000KT 4SM BR FEW041 BKN055 OVC070 23/23 A2991 RMK AO2
                 LTG DSNT E-S RAE2156B27E37 TSE04 SLP128 P0000 T02280228 =
2018-08-17 18:47 METAR KVSF 172247Z AUTO 00000KT 5SM BR FEW039 BKN050 OVC070 23/23 A2992 RMK AO2
                 LTG DSNT E AND S RAE2156B27E37 TSE04 P0000 T02330233 =
2018-08-17 18:10 METAR KVSF 172210Z AUTO 05004KT 9SM VCTS FEW019 BKN065 OVC100 24/24 A2993 RMK
                 AO2 RAE2156 TSE04 P0000 T02390239 =
2018-08-17 18:03 METAR KVSF 172203Z AUTO 00000KT 10SM TS SCT022 BKN032 OVC090 24/24 A2993 RMK AO2
                 RAE2156 P0000 T02440239 =
2018-08-17 17:54 METAR KVSF 172154Z AUTO VRB06KT 3SM -TSRA BR BKN024 BKN037 OVC060 23/23 A2994
                 RMK AO2 RAB28 TSB35 SLP137 P0045 T02330233 =
2018-08-17 17:52 METAR KVSF 172152Z AUTO VRB05KT 1SM -TSRA BR SCT021 BKN028 OVC060 23/23 A2994
                 RMK AO2 RAB28 TSB35 P0045 =
2018-08-17 17:47 METAR KVSF 172147Z AUTO 29008G19KT 1/2SM +TSRA FG SCT018 BKN036 OVC060 23/23
                 A2994 RMK AO2 RAB28 TSB35 P0045 T02330228 =
2018-08-17 17:37 METAR KVSF 172137Z AUTO 12011KT 1 1/2SM +TSRA BR SCT036 SCT047 OVC060 24/23
                 A2993 RMK AO2 RAB28 TSB35 P0009 T02440228 =
2018-08-17 16:54 METAR KVSF 172054Z AUTO 00000KT 10SM CLR 27/23 A2994 RMK AO2 SLP137 60000
                 T02670233 58019 =
2018-08-17 15:54 METAR KVSF 171954Z AUTO 00000KT 10SM BKN120 24/22 A2998 RMK AO2 SLP149 T02440222
                 =
2018-08-17 14:54 METAR KVSF 171854Z AUTO 00000KT 10SM FEW006 SCT028 SCT065 23/22 A3000 RMK AO2
                 RAE43 SLP156 P0000 T02330222 =
2018-08-17 14:52 METAR KVSF 171852Z AUTO 00000KT 10SM FEW006 SCT033 23/22 A3000 RMK AO2 RAE43
                 P0000 =
2018-08-17 13:54 METAR KVSF 171754Z AUTO 00000KT 10SM -RA FEW045 BKN070 OVC120 22/21 A3004 RMK
                 AO2 SLP170 P0003 60009 T02220211 10239 20172 58018 =
2018-08-17 12:54 METAR KVSF 171654Z AUTO 00000KT 6SM -RA BR BKN095 OVC120 22/22 A3006 RMK AO2
                 RAB1558 SLP176 P0006 T02170217 =
2018-08-17 12:21 METAR KVSF 171621Z AUTO 00000KT 3SM -RA BR FEW042 BKN090 OVC110 22/21 A3006 RMK
                 AO2 RAB1558 P0005 T02220206 =
2018-08-17 12:13 METAR KVSF 171613Z AUTO 00000KT 1 3/4SM +RA SCT048 SCT075 OVC100 22/19 A3007 RMK
                 AO2 RAB1558 P0005 T02220194 =
2018-08-17 11:54 METAR KVSF 171554Z AUTO 18003KT 10SM FEW043 SCT095 23/18 A3008 RMK AO2
                 RAB1459E11 SLP183 P0000 T02330183 =
2018-08-17 10:54 METAR KVSF 171454Z AUTO 15004KT 10SM CLR 23/18 A3009 RMK AO2 SLP188 T02280183
                 58010 =
2018-08-17 09:54 METAR KVSF 171354Z AUTO 00000KT 10SM CLR 21/18 A3010 RMK AO2 SLP191 T02110178 =
2018-08-17 08:54 METAR KVSF 171254Z AUTO 00000KT 10SM FEW004 19/18 A3011 RMK AO2 SLP196 T01890178
                 =
2018-08-17 08:08 METAR KVSF 171208Z AUTO 00000KT 3SM BR OVC002 17/17 A3012 RMK AO2 T01720172 =
2018-08-17 08:01 METAR KVSF 171201Z AUTO 00000KT 1SM BR OVC002 17/17 A3012 RMK AO2 T01720172 =
2018-08-17 07:54 METAR KVSF 171154Z AUTO 00000KT 1/4SM FG VV002 17/17 A3012 RMK AO2 SLP199
                 T01720172 10178 20161 58002 =
2018-08-17 07:36 METAR KVSF 171136Z AUTO 05003KT 1/4SM FG VV002 17/17 A3011 RMK AO2 T01670167 =
2018-08-17 07:27 METAR KVSF 171127Z AUTO 00000KT 1/2SM FG OVC002 17/17 A3012 RMK AO2 T01670167 =
2018-08-17 07:17 METAR KVSF 171117Z AUTO 00000KT 1 3/4SM BR OVC002 17/17 A3012 RMK AO2 T01670167
                 =
2018-08-17 06:54 METAR KVSF 171054Z AUTO 00000KT 9SM OVC002 16/16 A3013 RMK AO2 SLP202 T01610161
                 =
2018-08-17 06:51 METAR KVSF 171051Z AUTO 00000KT 9SM OVC002 16/16 A3013 RMK AO2 =
2018-08-17 06:44 METAR KVSF 171044Z AUTO 00000KT 2 1/2SM BR OVC002 16/16 A3013 RMK AO2 T01610161
                 =
2018-08-17 06:27 METAR KVSF 171027Z AUTO 00000KT 1/2SM FG OVC002 17/17 A3013 RMK AO2 T01670167 =
2018-08-17 06:15 METAR KVSF 171015Z AUTO 00000KT 1 3/4SM BR OVC003 16/16 A3013 RMK AO2 T01610161
                 =
2018-08-17 05:54 METAR KVSF 170954Z AUTO 00000KT 10SM OVC002 16/16 A3013 RMK AO2 SLP200 T01610161
                 =
2018-08-17 05:40 METAR KVSF 170940Z AUTO 00000KT 3SM BR OVC002 16/16 A3012 RMK AO2 T01610161 =
2018-08-17 05:16 METAR KVSF 170916Z AUTO 00000KT 1 3/4SM BR OVC002 17/17 A3012 RMK AO2 T01670167
                 =
2018-08-17 04:54 METAR KVSF 170854Z AUTO 00000KT 5SM BR OVC002 16/16 A3012 RMK AO2 SLP196
                 T01610161 58001 =
2018-08-17 04:10 METAR KVSF 170810Z AUTO 06004KT 3SM BR OVC002 17/17 A3012 RMK AO2 T01670167 =
2018-08-17 04:06 METAR KVSF 170806Z AUTO 07003KT 1SM BR VV002 17/17 A3012 RMK AO2 T01670167 =
2018-08-17 03:54 METAR KVSF 170754Z AUTO 00000KT 1/4SM FG VV002 17/17 A3012 RMK AO2 SLP197
                 T01720172 =
2018-08-17 03:50 METAR KVSF 170750Z AUTO 00000KT 1/4SM FG VV002 17/17 A3012 RMK AO2 =
2018-08-17 03:20 METAR KVSF 170720Z AUTO 00000KT 3/4SM BR OVC002 17/17 A3012 RMK AO2 VIS 1/4V5
                 T01720172 =

Support USWX by starting your Amazon purchase here.